Accueil
METAR-TAF:

METAR-TAF

Aéroports :

Sabadell, Espagne

latitude: 41-31N, longitude: 002-06E, altitude: 250 m

Observation

Le bulletin a été fait il y a 41 minutes, à 02:30 UTC
Vent 1 kt de direction variable
Température 24°C
Humidité 57%
Pression 1017 hPa
Visibilité 10 km ou plus
Nuages épars à une hauteur de 3700 ft
Nuages fragmentés à une hauteur de 4400 ft

METAR: LELL 200230Z AUTO VRB01KT 9999 SCT037 BKN044 24/15 Q1017

Heure: 05:11 (03:11 UTC)

Prévision

Le bulletin a été fait il y a 1 heure et 11 minutes, à 02:00 UTC
Prévision valable du 20 à 03 UTC au 21 à 03 UTC
Vent 6 kt de est/nord-est
Visibilité 10 km ou plus
Nuages épars à une hauteur de 3000 ft
Evoluant progressivement
du 20 à 09 UTC au 20 à 11 UTC
Vent 10 kt de sud-est
Evoluant progressivement
du 20 à 18 UTC au 20 à 20 UTC
Vent 3 kt de direction variable

TAF: LELL 200200Z 2003/2103 06006KT 9999 SCT030 TX27/2013Z TN20/2005Z BECMG 2009/2011 14010KT BECMG 2018/2020 VRB03KT

Observations et prévisions météorologiques de plus de 4000 aéroports (messages METAR et TAF).

Les stations disponibles sont représentées par des disques jaunes et rouges sur la carte.

Passer la souris dessus pour voir le nom de la station.

Cliquer dessus pour voir les observations et prévisions météorologiques.

Pour changer de carte: cliquez sur les boutons verts avec une croix noire pour zoomer, sur le bouton vert avec un tiret pour effectuer un zoom arrière, ou sur les flèches vertes pour les cartes adjacentes.


METAR-TAF: